• Join FlightAware (Why Join?)
  • Login
  • US Flag GB Flag 
09:43 EST


 

Airport Tracker/Info


-or-


 

Live Flight TrackerFlight Track Log ✈ SWA440 ✈ 28-Apr-2013 ✈ KMDW - KCLE

Flight Track Log - Related Links

Times and Time Zones

All times are in EDT time to prevent confusion due to time zone crossing. See the SWA440 flight status page for this flight to view local times or setup timezone preferences in your user account.

Time Position Orientation Groundspeed Altitude Reporting Facility
EDT Latitude Longitude Course Direction KTS MPH feet Rate Location/Type
09:13 41.8000 -87.7000 98° East 162 186 2,600  Level Chicago TRACON
09:14 41.7989 -87.6122 91° East 207 238 6,000 1,714 Climbing Chicago Center
09:15 41.7903 -87.5097 96° East 266 306 6,600 2,195 Climbing Chicago Center
09:16 41.7850 -87.4100 94° East 271 312 10,500 3,366 Climbing Chicago Center
09:17 41.7775 -87.2828 94° East 285 328 13,500 2,732 Climbing Chicago Center
09:18 41.7579 -87.1210 98° East  Level FlightAware Approximate
09:18 41.7689 -87.1581 95° East 328 377 16,100  Level Chicago Center
09:19 41.7614 -87.0286 94° East 346 398 18,700 2,341 Climbing Chicago Center
09:20 41.7636 -86.8936 89° East 362 417 20,900 2,634 Climbing Chicago Center
09:21 41.7647 -86.7583 89° East 365 420 24,100 2,758 Climbing Chicago Center
09:22 41.7664 -86.6222 89° East 362 417 26,600 2,146 Climbing Chicago Center
09:23 41.7672 -86.4778 90° East 387 445 28,500 1,171 Climbing Chicago Center
09:24 41.7681 -86.3333 90° East 389 448 29,000 244 Climbing Chicago Center
09:25 41.7856 -86.1603 82° East 391 450 29,000  Level Chicago Center
09:26 41.8014 -86.0128 82° East 399 459 29,000  Level Chicago Center
09:27 41.8175 -85.8608 82° East 408 470 29,000  Level Chicago Center
09:28 41.8347 -85.7050 82° East 419 482 29,000 -829 Level Chicago Center
09:29 41.8517 -85.5514 82° East 414 476 27,300 -976 Descending Chicago Center
09:30 41.8669 -85.4003 82° East 405 466 27,000 -145 Descending Chicago Center
09:31 41.8825 -85.2461 82° East 413 475 27,000  Level Chicago Center
09:32 41.8906 -85.1861 80° East 420 483 27,000  Level Cleveland Center
09:33 41.9050 -85.0281 83° East 420 483 27,000  Level Cleveland Center
09:34 41.9192 -84.8756 83° East 420 483 27,000  Level Cleveland Center
09:35 41.9353 -84.7231 82° East 420 483 27,000  Level Cleveland Center
09:36 41.9511 -84.5733 82° East 415 478 27,000  Level Cleveland Center
09:37 41.9644 -84.4233 83° East 415 478 27,000  Level Cleveland Center
09:38 41.9739 -84.2589 86° East 402 463 27,000  Level Cleveland Center
09:39 41.9892 -84.1117 82° East 402 463 27,000 -450 Level Cleveland Center
09:40 42.0019 -83.9644 83° East 402 463 26,100 -1,500 Descending Cleveland Center
09:41 42.0144 -83.8169 83° East 402 463 24,000 -1,050 Descending Cleveland Center
09:42 42.0267 -83.6747 83° East 402 463 24,000  Level Cleveland Center
09:43 42.0386 -83.5411 83° East 397 457 24,000  Level Cleveland Center
09:44 42.0403 -83.3903 89° East 402 463 24,000  Level Cleveland Center
09:45 42.0250 -83.2414 98° East 402 463 24,000  Level Cleveland Center
09:46 42.0097 -83.0814 97° East 402 463 24,000 -750 Level Cleveland Center
09:47 41.9961 -82.9386 97° East 392 451 22,500 -1,850 Descending Cleveland Center
09:48 41.9822 -82.8039 98° East 379 436 20,300 -2,150 Descending Cleveland Center
09:49 41.9700 -82.6750 97° East 360 414 18,200 -2,100 Descending Cleveland Center
09:50 41.9556 -82.5517 99° East 348 400 16,100 -2,050 Descending Cleveland Center
09:51 41.9242 -82.4419 111° Southeast 329 379 14,100 -1,979 Descending Cleveland Center
09:51 41.9061 -82.3911 115° Southeast 299 344 13,000 -1,900 Descending Cleveland Center
09:52 41.8903 -82.3431 114° Southeast 306 352 12,200 -1,889 Descending Cleveland Center
09:52 41.8783 -82.3011 111° Southeast 288 331 11,300 -1,800 Descending Cleveland Center
09:53 41.8603 -82.2447 113° Southeast 294 338 10,400 -1,279 Descending Cleveland Center
09:53 41.8464 -82.2028 114° Southeast 274 315 10,000 -500 Descending Cleveland Center
09:54 41.8242 -82.1575 123° Southeast 278 320 9,900 -1,091 Descending Cleveland Center
09:54 41.7825 -82.1564 179° South 247 284 8,800 -1,600 Descending Cleveland Center
09:55 41.7556 -82.1447 162° South 231 266 8,300 -1,574 Descending Cleveland Center
09:55 41.7117 -82.1436 179° South 249 287 7,200 -1,800 Descending Cleveland Center
09:56 41.6847 -82.1400 174° South 236 272 6,500 -1,791 Descending Cleveland Center
09:57 41.6367 -82.1333 174° South 248 285 5,200 -1,600 Descending Cleveland Center
09:57 41.6242 -82.1303 170° South 248 285 4,900 -1,200 Descending Cleveland Center
09:58 41.5681 -82.1233 175° South 244 281 4,000 -900 Descending Cleveland Center
09:58 41.5556 -82.1203 170° South 253 291 4,000  Level Cleveland Center
09:58 41.5161 -82.1194 179° South 202 232 4,000  Level Cleveland Center
09:59 41.4975 -82.1133 166° South 234 269 4,000  Level Cleveland Center
10:00 41.4494 -82.1094 177° South 205 236 4,000  Level Cleveland Center
10:00 41.4433 -82.1067 161° South 208 239 4,000 -80 Level Cleveland Center
10:01 41.3894 -82.0861 164° South 203 234 3,900 -545 Descending Cleveland Center
10:01 41.3625 -82.0742 162° South 197 227 3,200 -505 Descending Cleveland Center
10:03 41.3322 -81.9961 117° Southeast 207 238 3,000 -406 Descending Cleveland Center
10:04 41.3578 -81.9414 58° Northeast 195 224 2,300 -939 Descending Cleveland Center
10:05 41.3875 -81.8978 48° Northeast 144 166 1,200 -1,082 Descending Cleveland Center
10:07 41.4000 -81.8500 114° Southeast  Level FlightAware Approximate